Alum Bank, Pennsylvania
Current Conditions -  °F | °C
As of 7:29 PM on Wednesday 17 Dec 2014 (Local Time) from KJST Reporting Station
Overcast Overcast  
Wind Chill: 15°   Ceiling: 1400
Heat Index: 27°   Visibility: 10mi
Dew Point: 21°   Wind: 15mph
Humidity: 78%   Direction: 270°W
Pressure: 29.99"   Gusts: 23mph
Location:  40.18°N, 78.61°W
Report Text: KJST 180029Z AUTO 27013G20KT 10SM OVC014 M03/M06 A2999 RMK AO2 T10281061
Loading
Personal Weather Stations






























Interactive Weather Map New forecast layout! Learn more

10-Day Weather Forecast

Advertisements
Track Severe Weather on mobile